sensor_id;sensor_type;location;lat;lon;timestamp;temperature;humidity
41928;DHT22;27616;51.420;6.788;2022-10-31T00:00:07;15.10;99.90
41928;DHT22;27616;51.420;6.788;2022-10-31T00:02:37;15.10;99.90
41928;DHT22;27616;51.420;6.788;2022-10-31T00:05:03;15.10;99.90
41928;DHT22;27616;51.420;6.788;2022-10-31T00:07:29;15.10;99.90
41928;DHT22;27616;51.420;6.788;2022-10-31T00:09:54;15.00;99.90
41928;DHT22;27616;51.420;6.788;2022-10-31T00:12:20;15.00;99.90
41928;DHT22;27616;51.420;6.788;2022-10-31T00:14:46;15.00;99.90
41928;DHT22;27616;51.420;6.788;2022-10-31T00:17:12;15.00;99.90
41928;DHT22;27616;51.420;6.788;2022-10-31T00:19:38;15.00;99.90
41928;DHT22;27616;51.420;6.788;2022-10-31T00:22:04;15.00;99.90
41928;DHT22;27616;51.420;6.788;2022-10-31T00:24:29;15.00;99.90
41928;DHT22;27616;51.420;6.788;2022-10-31T00:26:55;15.00;99.90
41928;DHT22;27616;51.420;6.788;2022-10-31T00:29:21;14.90;99.90
41928;DHT22;27616;51.420;6.788;2022-10-31T00:31:47;14.90;99.90
41928;DHT22;27616;51.420;6.788;2022-10-31T00:34:14;14.90;99.90
41928;DHT22;27616;51.420;6.788;2022-10-31T00:36:40;14.90;99.90
41928;DHT22;27616;51.420;6.788;2022-10-31T00:39:11;14.90;99.90
41928;DHT22;27616;51.420;6.788;2022-10-31T00:41:37;14.80;99.90
41928;DHT22;27616;51.420;6.788;2022-10-31T00:44:07;14.80;99.90
41928;DHT22;27616;51.420;6.788;2022-10-31T00:46:33;14.80;99.90
41928;DHT22;27616;51.420;6.788;2022-10-31T00:48:59;14.80;99.90
41928;DHT22;27616;51.420;6.788;2022-10-31T00:51:24;14.80;99.90
41928;DHT22;27616;51.420;6.788;2022-10-31T00:53:51;14.70;99.90
41928;DHT22;27616;51.420;6.788;2022-10-31T00:56:17;14.70;99.90
41928;DHT22;27616;51.420;6.788;2022-10-31T00:58:43;14.80;99.90
41928;DHT22;27616;51.420;6.788;2022-10-31T01:01:08;14.80;99.90
41928;DHT22;27616;51.420;6.788;2022-10-31T01:03:35;14.80;99.90
41928;DHT22;27616;51.420;6.788;2022-10-31T01:06:08;14.80;99.90
41928;DHT22;27616;51.420;6.788;2022-10-31T01:08:35;14.80;99.90
41928;DHT22;27616;51.420;6.788;2022-10-31T01:11:16;14.70;99.90
41928;DHT22;27616;51.420;6.788;2022-10-31T01:13:43;14.70;99.90
41928;DHT22;27616;51.420;6.788;2022-10-31T01:16:12;14.70;99.90
41928;DHT22;27616;51.420;6.788;2022-10-31T01:18:38;14.70;99.90
41928;DHT22;27616;51.420;6.788;2022-10-31T01:21:10;14.70;99.90
41928;DHT22;27616;51.420;6.788;2022-10-31T01:23:36;14.70;99.90
41928;DHT22;27616;51.420;6.788;2022-10-31T01:26:09;14.70;99.90
41928;DHT22;27616;51.420;6.788;2022-10-31T01:28:37;14.60;99.90
41928;DHT22;27616;51.420;6.788;2022-10-31T01:31:08;14.70;99.90
41928;DHT22;27616;51.420;6.788;2022-10-31T01:33:35;14.70;99.90
41928;DHT22;27616;51.420;6.788;2022-10-31T01:36:11;14.60;99.90
41928;DHT22;27616;51.420;6.788;2022-10-31T01:38:37;14.60;99.90
41928;DHT22;27616;51.420;6.788;2022-10-31T01:41:03;14.60;99.90
41928;DHT22;27616;51.420;6.788;2022-10-31T01:43:57;14.60;99.90
41928;DHT22;27616;51.420;6.788;2022-10-31T01:46:35;14.50;99.90
41928;DHT22;27616;51.420;6.788;2022-10-31T01:49:12;14.50;99.90
41928;DHT22;27616;51.420;6.788;2022-10-31T01:51:44;14.50;99.90
41928;DHT22;27616;51.420;6.788;2022-10-31T01:54:14;14.50;99.90
41928;DHT22;27616;51.420;6.788;2022-10-31T01:56:43;14.40;99.90
41928;DHT22;27616;51.420;6.788;2022-10-31T01:59:14;14.40;99.90
41928;DHT22;27616;51.420;6.788;2022-10-31T02:01:42;14.40;99.90
41928;DHT22;27616;51.420;6.788;2022-10-31T02:04:08;14.40;99.90
41928;DHT22;27616;51.420;6.788;2022-10-31T02:09:12;14.50;99.90
41928;DHT22;27616;51.420;6.788;2022-10-31T02:11:40;14.50;99.90
41928;DHT22;27616;51.420;6.788;2022-10-31T02:14:09;14.40;99.90
41928;DHT22;27616;51.420;6.788;2022-10-31T02:16:35;14.50;99.90
41928;DHT22;27616;51.420;6.788;2022-10-31T02:19:03;14.50;99.90
41928;DHT22;27616;51.420;6.788;2022-10-31T02:21:47;14.50;99.90
41928;DHT22;27616;51.420;6.788;2022-10-31T02:24:44;14.40;99.90
41928;DHT22;27616;51.420;6.788;2022-10-31T02:38:49;14.30;99.90
41928;DHT22;27616;51.420;6.788;2022-10-31T02:51:53;14.20;99.90
41928;DHT22;27616;51.420;6.788;2022-10-31T02:54:22;14.20;99.90
41928;DHT22;27616;51.420;6.788;2022-10-31T02:57:03;14.20;99.90
41928;DHT22;27616;51.420;6.788;2022-10-31T02:59:31;14.20;99.90
41928;DHT22;27616;51.420;6.788;2022-10-31T03:02:47;14.20;99.90
41928;DHT22;27616;51.420;6.788;2022-10-31T03:10:31;14.10;99.90
41928;DHT22;27616;51.420;6.788;2022-10-31T03:15:46;14.00;99.90
41928;DHT22;27616;51.420;6.788;2022-10-31T03:18:37;14.00;99.90
41928;DHT22;27616;51.420;6.788;2022-10-31T03:21:20;13.90;99.90
41928;DHT22;27616;51.420;6.788;2022-10-31T03:23:49;13.90;99.90
41928;DHT22;27616;51.420;6.788;2022-10-31T03:26:20;13.80;99.90
41928;DHT22;27616;51.420;6.788;2022-10-31T03:28:57;13.80;99.90
41928;DHT22;27616;51.420;6.788;2022-10-31T03:31:29;13.80;99.90
41928;DHT22;27616;51.420;6.788;2022-10-31T03:33:59;13.80;99.90
41928;DHT22;27616;51.420;6.788;2022-10-31T03:36:30;13.80;99.90
41928;DHT22;27616;51.420;6.788;2022-10-31T03:39:01;13.80;99.90
41928;DHT22;27616;51.420;6.788;2022-10-31T03:41:31;13.80;99.90
41928;DHT22;27616;51.420;6.788;2022-10-31T03:44:04;13.80;99.90
41928;DHT22;27616;51.420;6.788;2022-10-31T03:46:33;13.80;99.90
41928;DHT22;27616;51.420;6.788;2022-10-31T03:48:59;13.70;99.90
41928;DHT22;27616;51.420;6.788;2022-10-31T03:54:12;13.70;99.90
41928;DHT22;27616;51.420;6.788;2022-10-31T03:57:07;13.70;99.90
41928;DHT22;27616;51.420;6.788;2022-10-31T03:59:42;13.60;99.90
41928;DHT22;27616;51.420;6.788;2022-10-31T04:02:16;13.70;99.90
41928;DHT22;27616;51.420;6.788;2022-10-31T04:04:44;13.60;99.90
41928;DHT22;27616;51.420;6.788;2022-10-31T04:07:13;13.70;99.90
41928;DHT22;27616;51.420;6.788;2022-10-31T04:09:42;13.70;99.90
41928;DHT22;27616;51.420;6.788;2022-10-31T04:12:13;13.70;99.90
41928;DHT22;27616;51.420;6.788;2022-10-31T04:14:53;13.70;99.90
41928;DHT22;27616;51.420;6.788;2022-10-31T04:17:22;13.70;99.90
41928;DHT22;27616;51.420;6.788;2022-10-31T04:19:49;13.70;99.90
41928;DHT22;27616;51.420;6.788;2022-10-31T04:22:15;13.70;99.90
41928;DHT22;27616;51.420;6.788;2022-10-31T04:24:41;13.60;99.90
41928;DHT22;27616;51.420;6.788;2022-10-31T04:27:10;13.60;99.90
41928;DHT22;27616;51.420;6.788;2022-10-31T04:29:37;13.70;99.90
41928;DHT22;27616;51.420;6.788;2022-10-31T04:32:02;13.70;99.90
41928;DHT22;27616;51.420;6.788;2022-10-31T04:34:28;13.70;99.90
41928;DHT22;27616;51.420;6.788;2022-10-31T04:36:54;13.70;99.90
41928;DHT22;27616;51.420;6.788;2022-10-31T04:39:20;13.70;99.90
41928;DHT22;27616;51.420;6.788;2022-10-31T04:41:57;13.70;99.90
41928;DHT22;27616;51.420;6.788;2022-10-31T04:44:23;13.70;99.90
41928;DHT22;27616;51.420;6.788;2022-10-31T04:46:52;13.70;99.90
41928;DHT22;27616;51.420;6.788;2022-10-31T04:49:17;13.70;99.90
41928;DHT22;27616;51.420;6.788;2022-10-31T04:51:43;13.60;99.90
41928;DHT22;27616;51.420;6.788;2022-10-31T04:54:09;13.60;99.90
41928;DHT22;27616;51.420;6.788;2022-10-31T04:56:53;13.60;99.90
41928;DHT22;27616;51.420;6.788;2022-10-31T04:59:21;13.60;99.90
41928;DHT22;27616;51.420;6.788;2022-10-31T05:01:51;13.70;99.90
41928;DHT22;27616;51.420;6.788;2022-10-31T05:04:22;13.70;99.90
41928;DHT22;27616;51.420;6.788;2022-10-31T05:06:48;13.70;99.90
41928;DHT22;27616;51.420;6.788;2022-10-31T05:09:14;13.60;99.90
41928;DHT22;27616;51.420;6.788;2022-10-31T05:11:42;13.60;99.90
41928;DHT22;27616;51.420;6.788;2022-10-31T05:14:31;13.60;99.90
41928;DHT22;27616;51.420;6.788;2022-10-31T05:17:15;13.60;99.90
41928;DHT22;27616;51.420;6.788;2022-10-31T05:19:59;13.50;99.90
41928;DHT22;27616;51.420;6.788;2022-10-31T05:22:50;13.50;99.90
41928;DHT22;27616;51.420;6.788;2022-10-31T05:25:17;13.50;99.90
41928;DHT22;27616;51.420;6.788;2022-10-31T05:27:45;13.50;99.90
41928;DHT22;27616;51.420;6.788;2022-10-31T05:30:13;13.50;99.90
41928;DHT22;27616;51.420;6.788;2022-10-31T05:32:43;13.50;99.90
41928;DHT22;27616;51.420;6.788;2022-10-31T05:35:33;13.50;99.90
41928;DHT22;27616;51.420;6.788;2022-10-31T05:38:21;13.50;99.90
41928;DHT22;27616;51.420;6.788;2022-10-31T05:40:47;13.50;99.90
41928;DHT22;27616;51.420;6.788;2022-10-31T05:43:14;13.50;99.90
41928;DHT22;27616;51.420;6.788;2022-10-31T05:45:40;13.50;99.90
41928;DHT22;27616;51.420;6.788;2022-10-31T05:48:12;13.50;99.90
41928;DHT22;27616;51.420;6.788;2022-10-31T05:51:16;13.50;99.90
41928;DHT22;27616;51.420;6.788;2022-10-31T05:53:42;13.50;99.90
41928;DHT22;27616;51.420;6.788;2022-10-31T05:56:08;13.50;99.90
41928;DHT22;27616;51.420;6.788;2022-10-31T05:58:35;13.50;99.90
41928;DHT22;27616;51.420;6.788;2022-10-31T06:01:04;13.50;99.90
41928;DHT22;27616;51.420;6.788;2022-10-31T06:03:32;13.50;99.90
41928;DHT22;27616;51.420;6.788;2022-10-31T06:06:00;13.50;99.90
41928;DHT22;27616;51.420;6.788;2022-10-31T06:08:32;13.50;99.90
41928;DHT22;27616;51.420;6.788;2022-10-31T06:11:03;13.40;99.90
41928;DHT22;27616;51.420;6.788;2022-10-31T06:14:05;13.40;99.90
41928;DHT22;27616;51.420;6.788;2022-10-31T06:16:54;13.40;99.90
41928;DHT22;27616;51.420;6.788;2022-10-31T06:19:52;13.40;99.90
41928;DHT22;27616;51.420;6.788;2022-10-31T06:22:21;13.40;99.90
41928;DHT22;27616;51.420;6.788;2022-10-31T06:24:47;13.40;99.90
41928;DHT22;27616;51.420;6.788;2022-10-31T06:27:34;13.40;99.90
41928;DHT22;27616;51.420;6.788;2022-10-31T06:30:07;13.40;99.90
41928;DHT22;27616;51.420;6.788;2022-10-31T06:32:35;13.40;99.90
41928;DHT22;27616;51.420;6.788;2022-10-31T06:35:01;13.40;99.90
41928;DHT22;27616;51.420;6.788;2022-10-31T06:37:28;13.40;99.90
41928;DHT22;27616;51.420;6.788;2022-10-31T06:40:00;13.40;99.90
41928;DHT22;27616;51.420;6.788;2022-10-31T06:42:26;13.40;99.90
41928;DHT22;27616;51.420;6.788;2022-10-31T06:44:52;13.40;99.90
41928;DHT22;27616;51.420;6.788;2022-10-31T06:47:56;13.40;99.90
41928;DHT22;27616;51.420;6.788;2022-10-31T06:50:26;13.40;99.90
41928;DHT22;27616;51.420;6.788;2022-10-31T06:52:58;13.40;99.90
41928;DHT22;27616;51.420;6.788;2022-10-31T06:55:25;13.30;99.90
41928;DHT22;27616;51.420;6.788;2022-10-31T06:57:59;13.30;99.90
41928;DHT22;27616;51.420;6.788;2022-10-31T07:00:27;13.30;99.90
41928;DHT22;27616;51.420;6.788;2022-10-31T07:03:04;13.30;99.90
41928;DHT22;27616;51.420;6.788;2022-10-31T07:05:32;13.40;99.90
41928;DHT22;27616;51.420;6.788;2022-10-31T07:08:00;13.40;99.90
41928;DHT22;27616;51.420;6.788;2022-10-31T07:10:29;13.40;99.90
41928;DHT22;27616;51.420;6.788;2022-10-31T07:13:01;13.40;99.90
41928;DHT22;27616;51.420;6.788;2022-10-31T07:15:33;13.40;99.90
41928;DHT22;27616;51.420;6.788;2022-10-31T07:18:04;13.30;99.90
41928;DHT22;27616;51.420;6.788;2022-10-31T07:20:32;13.30;99.90
41928;DHT22;27616;51.420;6.788;2022-10-31T07:22:58;13.20;99.90
41928;DHT22;27616;51.420;6.788;2022-10-31T07:25:26;13.20;99.90
41928;DHT22;27616;51.420;6.788;2022-10-31T07:28:04;13.20;99.90
41928;DHT22;27616;51.420;6.788;2022-10-31T07:30:31;13.20;99.90
41928;DHT22;27616;51.420;6.788;2022-10-31T07:32:56;13.10;99.90
41928;DHT22;27616;51.420;6.788;2022-10-31T07:35:29;13.10;99.90
41928;DHT22;27616;51.420;6.788;2022-10-31T07:38:07;13.10;99.90
41928;DHT22;27616;51.420;6.788;2022-10-31T07:40:33;13.20;99.90
41928;DHT22;27616;51.420;6.788;2022-10-31T07:42:59;13.20;99.90
41928;DHT22;27616;51.420;6.788;2022-10-31T07:45:43;13.30;99.90
41928;DHT22;27616;51.420;6.788;2022-10-31T07:48:28;13.30;99.90
41928;DHT22;27616;51.420;6.788;2022-10-31T07:51:20;13.40;99.90
41928;DHT22;27616;51.420;6.788;2022-10-31T07:54:04;13.50;99.90
41928;DHT22;27616;51.420;6.788;2022-10-31T07:56:31;13.60;99.90
41928;DHT22;27616;51.420;6.788;2022-10-31T07:58:57;13.70;99.90
41928;DHT22;27616;51.420;6.788;2022-10-31T08:01:23;13.70;99.90
41928;DHT22;27616;51.420;6.788;2022-10-31T08:04:08;13.70;99.90
41928;DHT22;27616;51.420;6.788;2022-10-31T08:06:53;13.70;99.90
41928;DHT22;27616;51.420;6.788;2022-10-31T08:09:26;13.70;99.90
41928;DHT22;27616;51.420;6.788;2022-10-31T08:11:57;13.70;99.90
41928;DHT22;27616;51.420;6.788;2022-10-31T08:14:22;13.70;99.90
41928;DHT22;27616;51.420;6.788;2022-10-31T08:16:52;13.80;99.90
41928;DHT22;27616;51.420;6.788;2022-10-31T08:19:18;13.80;99.90
41928;DHT22;27616;51.420;6.788;2022-10-31T08:21:44;13.80;99.90
41928;DHT22;27616;51.420;6.788;2022-10-31T08:24:10;13.80;99.90
41928;DHT22;27616;51.420;6.788;2022-10-31T08:26:36;13.90;99.90
41928;DHT22;27616;51.420;6.788;2022-10-31T08:29:05;13.90;99.90
41928;DHT22;27616;51.420;6.788;2022-10-31T08:31:33;13.90;99.90
41928;DHT22;27616;51.420;6.788;2022-10-31T08:34:17;14.00;99.90
41928;DHT22;27616;51.420;6.788;2022-10-31T08:36:45;14.00;99.90
41928;DHT22;27616;51.420;6.788;2022-10-31T08:39:21;14.10;99.90
41928;DHT22;27616;51.420;6.788;2022-10-31T08:41:49;14.10;99.90
41928;DHT22;27616;51.420;6.788;2022-10-31T08:44:16;14.10;99.90
41928;DHT22;27616;51.420;6.788;2022-10-31T08:46:42;14.20;99.90
41928;DHT22;27616;51.420;6.788;2022-10-31T08:49:08;14.20;99.90
41928;DHT22;27616;51.420;6.788;2022-10-31T08:51:34;14.20;99.90
41928;DHT22;27616;51.420;6.788;2022-10-31T08:54:00;14.30;99.90
41928;DHT22;27616;51.420;6.788;2022-10-31T08:56:34;14.40;99.90
41928;DHT22;27616;51.420;6.788;2022-10-31T08:59:04;14.40;99.90
41928;DHT22;27616;51.420;6.788;2022-10-31T09:01:47;14.40;99.90
41928;DHT22;27616;51.420;6.788;2022-10-31T09:04:13;14.40;99.90
41928;DHT22;27616;51.420;6.788;2022-10-31T09:06:39;14.50;99.90
41928;DHT22;27616;51.420;6.788;2022-10-31T09:09:05;14.50;99.90
41928;DHT22;27616;51.420;6.788;2022-10-31T09:11:31;14.60;99.90
41928;DHT22;27616;51.420;6.788;2022-10-31T09:14:20;14.60;99.90
41928;DHT22;27616;51.420;6.788;2022-10-31T09:17:04;14.60;99.90
41928;DHT22;27616;51.420;6.788;2022-10-31T09:19:48;14.60;99.90
41928;DHT22;27616;51.420;6.788;2022-10-31T09:22:14;14.60;99.90
41928;DHT22;27616;51.420;6.788;2022-10-31T09:24:40;14.70;99.90
41928;DHT22;27616;51.420;6.788;2022-10-31T09:27:06;14.70;99.90
41928;DHT22;27616;51.420;6.788;2022-10-31T09:29:35;14.80;99.90
41928;DHT22;27616;51.420;6.788;2022-10-31T09:32:03;14.80;99.90
41928;DHT22;27616;51.420;6.788;2022-10-31T09:34:32;14.90;99.90
41928;DHT22;27616;51.420;6.788;2022-10-31T09:37:06;15.00;99.90
41928;DHT22;27616;51.420;6.788;2022-10-31T09:39:34;15.00;99.90
41928;DHT22;27616;51.420;6.788;2022-10-31T09:42:33;15.00;99.90
41928;DHT22;27616;51.420;6.788;2022-10-31T09:51:07;15.20;99.90
41928;DHT22;27616;51.420;6.788;2022-10-31T09:54:00;15.20;99.90
41928;DHT22;27616;51.420;6.788;2022-10-31T09:56:28;15.30;99.90
41928;DHT22;27616;51.420;6.788;2022-10-31T09:59:00;15.30;99.90
41928;DHT22;27616;51.420;6.788;2022-10-31T10:05:10;15.40;99.90
41928;DHT22;27616;51.420;6.788;2022-10-31T10:09:59;15.60;99.90
41928;DHT22;27616;51.420;6.788;2022-10-31T10:26:35;15.90;99.90
41928;DHT22;27616;51.420;6.788;2022-10-31T10:29:47;15.90;99.90
41928;DHT22;27616;51.420;6.788;2022-10-31T10:31:53;15.90;99.90
41928;DHT22;27616;51.420;6.788;2022-10-31T10:34:34;15.90;99.90
41928;DHT22;27616;51.420;6.788;2022-10-31T10:37:23;16.00;99.90
41928;DHT22;27616;51.420;6.788;2022-10-31T10:39:55;16.00;99.90
41928;DHT22;27616;51.420;6.788;2022-10-31T10:42:25;16.00;99.90
41928;DHT22;27616;51.420;6.788;2022-10-31T10:45:15;16.00;99.90
41928;DHT22;27616;51.420;6.788;2022-10-31T10:48:27;16.00;99.90
41928;DHT22;27616;51.420;6.788;2022-10-31T10:50:57;16.10;99.90
41928;DHT22;27616;51.420;6.788;2022-10-31T10:54:11;16.10;99.90
41928;DHT22;27616;51.420;6.788;2022-10-31T10:59:26;16.10;99.90
41928;DHT22;27616;51.420;6.788;2022-10-31T11:01:52;16.20;99.90
41928;DHT22;27616;51.420;6.788;2022-10-31T11:04:39;16.20;99.90
41928;DHT22;27616;51.420;6.788;2022-10-31T11:07:07;16.30;99.90
41928;DHT22;27616;51.420;6.788;2022-10-31T11:09:35;16.30;99.90
41928;DHT22;27616;51.420;6.788;2022-10-31T11:12:17;16.30;99.90
41928;DHT22;27616;51.420;6.788;2022-10-31T11:14:50;16.30;99.90
41928;DHT22;27616;51.420;6.788;2022-10-31T11:17:36;16.30;99.90
41928;DHT22;27616;51.420;6.788;2022-10-31T11:20:33;16.40;99.90
41928;DHT22;27616;51.420;6.788;2022-10-31T11:23:16;16.40;99.90
41928;DHT22;27616;51.420;6.788;2022-10-31T11:28:58;16.50;99.90
41928;DHT22;27616;51.420;6.788;2022-10-31T11:31:25;16.50;99.90
41928;DHT22;27616;51.420;6.788;2022-10-31T11:34:13;16.60;99.90
41928;DHT22;27616;51.420;6.788;2022-10-31T11:36:43;16.60;99.90
41928;DHT22;27616;51.420;6.788;2022-10-31T11:39:23;16.60;99.90
41928;DHT22;27616;51.420;6.788;2022-10-31T11:41:52;16.60;99.90
41928;DHT22;27616;51.420;6.788;2022-10-31T11:44:28;16.60;99.90
41928;DHT22;27616;51.420;6.788;2022-10-31T11:47:00;16.60;99.90
41928;DHT22;27616;51.420;6.788;2022-10-31T11:49:29;16.60;99.90
41928;DHT22;27616;51.420;6.788;2022-10-31T11:51:58;16.60;99.90
41928;DHT22;27616;51.420;6.788;2022-10-31T11:57:44;16.70;99.90
41928;DHT22;27616;51.420;6.788;2022-10-31T12:00:35;16.70;99.90
41928;DHT22;27616;51.420;6.788;2022-10-31T12:05:49;16.70;99.90
41928;DHT22;27616;51.420;6.788;2022-10-31T12:08:18;16.70;99.90
41928;DHT22;27616;51.420;6.788;2022-10-31T12:20:03;16.80;99.90
41928;DHT22;27616;51.420;6.788;2022-10-31T12:22:56;16.80;99.90
41928;DHT22;27616;51.420;6.788;2022-10-31T12:26:10;16.80;99.90
41928;DHT22;27616;51.420;6.788;2022-10-31T12:29:07;16.90;99.90
41928;DHT22;27616;51.420;6.788;2022-10-31T12:41:04;16.90;99.90
41928;DHT22;27616;51.420;6.788;2022-10-31T12:49:49;16.90;99.90
41928;DHT22;27616;51.420;6.788;2022-10-31T12:55:19;16.90;99.90
41928;DHT22;27616;51.420;6.788;2022-10-31T12:57:50;16.90;99.90
41928;DHT22;27616;51.420;6.788;2022-10-31T13:00:19;16.90;99.90
41928;DHT22;27616;51.420;6.788;2022-10-31T13:02:54;16.90;99.90
41928;DHT22;27616;51.420;6.788;2022-10-31T13:05:37;16.90;99.90
41928;DHT22;27616;51.420;6.788;2022-10-31T13:08:10;16.90;99.90
41928;DHT22;27616;51.420;6.788;2022-10-31T13:10:46;16.90;99.90
41928;DHT22;27616;51.420;6.788;2022-10-31T13:15:51;17.00;99.90
41928;DHT22;27616;51.420;6.788;2022-10-31T13:18:28;17.00;99.90
41928;DHT22;27616;51.420;6.788;2022-10-31T13:20:57;17.00;99.90
41928;DHT22;27616;51.420;6.788;2022-10-31T13:23:33;17.00;99.90
41928;DHT22;27616;51.420;6.788;2022-10-31T13:26:06;17.00;99.90
41928;DHT22;27616;51.420;6.788;2022-10-31T13:31:10;17.10;99.90
41928;DHT22;27616;51.420;6.788;2022-10-31T13:33:40;17.10;99.90
41928;DHT22;27616;51.420;6.788;2022-10-31T13:39:02;17.00;99.90
41928;DHT22;27616;51.420;6.788;2022-10-31T13:44:26;17.00;99.90
41928;DHT22;27616;51.420;6.788;2022-10-31T13:46:55;17.00;99.90
41928;DHT22;27616;51.420;6.788;2022-10-31T13:54:41;17.00;99.90
41928;DHT22;27616;51.420;6.788;2022-10-31T13:57:19;17.10;99.90
41928;DHT22;27616;51.420;6.788;2022-10-31T14:00:07;17.10;99.90
41928;DHT22;27616;51.420;6.788;2022-10-31T14:02:52;17.00;99.90
41928;DHT22;27616;51.420;6.788;2022-10-31T14:05:30;17.10;99.90
41928;DHT22;27616;51.420;6.788;2022-10-31T14:07:58;17.10;99.90
41928;DHT22;27616;51.420;6.788;2022-10-31T14:10:28;17.00;99.90
41928;DHT22;27616;51.420;6.788;2022-10-31T14:15:42;17.00;99.90
41928;DHT22;27616;51.420;6.788;2022-10-31T14:18:34;17.00;99.90
41928;DHT22;27616;51.420;6.788;2022-10-31T14:21:01;17.00;99.90
41928;DHT22;27616;51.420;6.788;2022-10-31T14:23:41;16.90;99.90
41928;DHT22;27616;51.420;6.788;2022-10-31T14:28:51;16.90;99.90
41928;DHT22;27616;51.420;6.788;2022-10-31T14:31:38;16.90;99.90
41928;DHT22;27616;51.420;6.788;2022-10-31T14:37:29;16.90;99.90
41928;DHT22;27616;51.420;6.788;2022-10-31T14:47:46;17.00;99.90
41928;DHT22;27616;51.420;6.788;2022-10-31T14:53:04;17.00;99.90
41928;DHT22;27616;51.420;6.788;2022-10-31T14:55:30;16.90;99.90
41928;DHT22;27616;51.420;6.788;2022-10-31T14:58:03;16.90;99.90
41928;DHT22;27616;51.420;6.788;2022-10-31T15:00:32;16.90;99.90
41928;DHT22;27616;51.420;6.788;2022-10-31T15:03:15;16.90;99.90
41928;DHT22;27616;51.420;6.788;2022-10-31T15:05:46;16.90;99.90
41928;DHT22;27616;51.420;6.788;2022-10-31T15:08:26;16.90;99.90
41928;DHT22;27616;51.420;6.788;2022-10-31T15:10:52;16.90;99.90
41928;DHT22;27616;51.420;6.788;2022-10-31T15:13:20;16.90;99.90
41928;DHT22;27616;51.420;6.788;2022-10-31T15:15:53;16.90;99.90
41928;DHT22;27616;51.420;6.788;2022-10-31T15:18:24;16.90;99.90
41928;DHT22;27616;51.420;6.788;2022-10-31T15:20:51;16.90;99.90
41928;DHT22;27616;51.420;6.788;2022-10-31T15:23:32;16.90;99.90
41928;DHT22;27616;51.420;6.788;2022-10-31T15:26:05;17.00;99.90
41928;DHT22;27616;51.420;6.788;2022-10-31T15:28:31;16.90;99.90
41928;DHT22;27616;51.420;6.788;2022-10-31T15:31:00;16.90;99.90
41928;DHT22;27616;51.420;6.788;2022-10-31T15:33:31;16.90;99.90
41928;DHT22;27616;51.420;6.788;2022-10-31T15:35:59;16.90;99.90
41928;DHT22;27616;51.420;6.788;2022-10-31T15:38:27;16.90;99.90
41928;DHT22;27616;51.420;6.788;2022-10-31T15:41:21;16.80;99.90
41928;DHT22;27616;51.420;6.788;2022-10-31T15:43:48;16.80;99.90
41928;DHT22;27616;51.420;6.788;2022-10-31T15:46:14;16.80;99.90
41928;DHT22;27616;51.420;6.788;2022-10-31T15:48:44;16.80;99.90
41928;DHT22;27616;51.420;6.788;2022-10-31T15:51:13;16.70;99.90
41928;DHT22;27616;51.420;6.788;2022-10-31T15:53:50;16.70;99.90
41928;DHT22;27616;51.420;6.788;2022-10-31T15:56:35;16.70;99.90
41928;DHT22;27616;51.420;6.788;2022-10-31T15:59:02;16.60;99.90
41928;DHT22;27616;51.420;6.788;2022-10-31T16:01:32;16.60;99.90
41928;DHT22;27616;51.420;6.788;2022-10-31T16:04:19;16.60;99.90
41928;DHT22;27616;51.420;6.788;2022-10-31T16:07:12;16.60;99.90
41928;DHT22;27616;51.420;6.788;2022-10-31T16:10:34;16.60;99.90
41928;DHT22;27616;51.420;6.788;2022-10-31T16:12:37;16.50;99.90
41928;DHT22;27616;51.420;6.788;2022-10-31T16:15:14;16.50;99.90
41928;DHT22;27616;51.420;6.788;2022-10-31T16:17:46;16.60;99.90
41928;DHT22;27616;51.420;6.788;2022-10-31T16:20:22;16.50;99.90
41928;DHT22;27616;51.420;6.788;2022-10-31T16:22:51;16.50;99.90
41928;DHT22;27616;51.420;6.788;2022-10-31T16:25:26;16.50;99.90
41928;DHT22;27616;51.420;6.788;2022-10-31T16:27:53;16.50;99.90
41928;DHT22;27616;51.420;6.788;2022-10-31T16:30:39;16.50;99.90
41928;DHT22;27616;51.420;6.788;2022-10-31T16:33:33;16.50;99.90
41928;DHT22;27616;51.420;6.788;2022-10-31T16:38:54;16.40;99.90
41928;DHT22;27616;51.420;6.788;2022-10-31T16:41:20;16.40;99.90
41928;DHT22;27616;51.420;6.788;2022-10-31T16:43:46;16.40;99.90
41928;DHT22;27616;51.420;6.788;2022-10-31T16:46:15;16.40;99.90
41928;DHT22;27616;51.420;6.788;2022-10-31T16:48:43;16.40;99.90
41928;DHT22;27616;51.420;6.788;2022-10-31T16:51:09;16.40;99.90
41928;DHT22;27616;51.420;6.788;2022-10-31T16:53:35;16.40;99.90
41928;DHT22;27616;51.420;6.788;2022-10-31T16:56:18;16.40;99.90
41928;DHT22;27616;51.420;6.788;2022-10-31T16:58:46;16.40;99.90
41928;DHT22;27616;51.420;6.788;2022-10-31T17:01:12;16.40;99.90
41928;DHT22;27616;51.420;6.788;2022-10-31T17:03:39;16.40;99.90
41928;DHT22;27616;51.420;6.788;2022-10-31T17:06:05;16.30;99.90
41928;DHT22;27616;51.420;6.788;2022-10-31T17:08:30;16.30;99.90
41928;DHT22;27616;51.420;6.788;2022-10-31T17:10:58;16.40;99.90
41928;DHT22;27616;51.420;6.788;2022-10-31T17:13:29;16.30;99.90
41928;DHT22;27616;51.420;6.788;2022-10-31T17:15:58;16.30;99.90
41928;DHT22;27616;51.420;6.788;2022-10-31T17:18:24;16.30;99.90
41928;DHT22;27616;51.420;6.788;2022-10-31T17:20:55;16.30;99.90
41928;DHT22;27616;51.420;6.788;2022-10-31T17:23:22;16.30;99.90
41928;DHT22;27616;51.420;6.788;2022-10-31T17:25:48;16.30;99.90
41928;DHT22;27616;51.420;6.788;2022-10-31T17:28:14;16.30;99.90
41928;DHT22;27616;51.420;6.788;2022-10-31T17:30:40;16.30;99.90
41928;DHT22;27616;51.420;6.788;2022-10-31T17:33:13;16.30;99.90
41928;DHT22;27616;51.420;6.788;2022-10-31T17:35:40;16.20;99.90
41928;DHT22;27616;51.420;6.788;2022-10-31T17:38:06;16.20;99.90
41928;DHT22;27616;51.420;6.788;2022-10-31T17:40:32;16.20;99.90
41928;DHT22;27616;51.420;6.788;2022-10-31T17:42:58;16.20;99.90
41928;DHT22;27616;51.420;6.788;2022-10-31T17:45:25;16.20;99.90
41928;DHT22;27616;51.420;6.788;2022-10-31T17:47:52;16.20;99.90
41928;DHT22;27616;51.420;6.788;2022-10-31T17:50:21;16.10;99.90
41928;DHT22;27616;51.420;6.788;2022-10-31T17:52:47;16.10;99.90
41928;DHT22;27616;51.420;6.788;2022-10-31T17:55:14;16.10;99.90
41928;DHT22;27616;51.420;6.788;2022-10-31T17:57:40;16.10;99.90
41928;DHT22;27616;51.420;6.788;2022-10-31T18:00:09;16.20;99.90
41928;DHT22;27616;51.420;6.788;2022-10-31T18:02:37;16.10;99.90
41928;DHT22;27616;51.420;6.788;2022-10-31T18:05:04;16.10;99.90
41928;DHT22;27616;51.420;6.788;2022-10-31T18:07:31;16.10;99.90
41928;DHT22;27616;51.420;6.788;2022-10-31T18:09:57;16.10;99.90
41928;DHT22;27616;51.420;6.788;2022-10-31T18:12:26;16.10;99.90
41928;DHT22;27616;51.420;6.788;2022-10-31T18:14:52;16.10;99.90
41928;DHT22;27616;51.420;6.788;2022-10-31T18:17:18;16.20;99.90
41928;DHT22;27616;51.420;6.788;2022-10-31T18:19:44;16.20;99.90
41928;DHT22;27616;51.420;6.788;2022-10-31T18:22:11;16.20;99.90